Luckey, Ohio
Current Conditions -  °F | °C
As of 9:53 PM on Sunday 23 Nov 2014 (Local Time) from KTDZ Reporting Station
Light Rain Light Rain  
Wind Chill: 53°   Ceiling: 1800
Heat Index: 53°   Visibility: 8mi
Dew Point: 50°   Wind: 16mph
Humidity: 89%   Direction: 140°SE
Pressure: 29.36"   Gusts: NA
Location:  41.45°N, 83.49°W
Report Text: KTDZ 240253Z AUTO 14014KT 8SM -RA FEW012 BKN018 OVC028 12/10 A2936 RMK AO2 PRESFR SLP942 P0010 60025 T01170100 56044 TSNO
Loading
Personal Weather Stations






























Interactive Weather Map New forecast layout! Learn more

10-Day Weather Forecast

Advertisements
Track Severe Weather on mobile